Time;durP1;ratioP1;P1;durP2;ratioP2;P2;SDS_P1;SDS_P2;PMS_P1;PMS_P2;Temp;Humidity;BMP_temperature;BMP_pressure;BME280_temperature;BME280_humidity;BME280_pressure;Samples;Min_cycle;Max_cycle;Signal;HPM_P1;HPM_P2
2022/11/20 00:01:28;;;;;;;10.57;7.15;;;;;;;8.00;96.63;97620.13;5114258;23;20186;-85
2022/11/20 00:03:31;;;;;;;8.68;7.15;;;;;;;7.99;97.75;97611.50;5089066;23;20706;-84
2022/11/20 00:05:34;;;;;;;11.82;8.00;;;;;;;7.99;97.30;97603.69;5112149;23;20182;-84
2022/11/20 00:07:37;;;;;;;13.27;7.78;;;;;;;8.00;97.58;97614.94;5089254;23;20226;-85
2022/11/20 00:09:40;;;;;;;9.50;8.50;;;;;;;8.01;97.09;97616.59;5114356;23;20269;-85
2022/11/20 00:11:45;;;;;;;13.30;9.07;;;;;;;8.03;97.37;97612.97;5114427;23;20204;-84
2022/11/20 00:13:49;;;;;;;11.80;8.38;;;;;;;8.02;97.50;97613.88;5114492;23;20182;-85
2022/11/20 00:15:58;;;;;;;12.23;8.35;;;;;;;8.02;96.42;97607.88;5090183;23;20175;-85
2022/11/20 00:18:01;;;;;;;9.15;7.65;;;;;;;8.03;97.49;97619.94;5090387;23;20179;-85
2022/11/20 00:20:05;;;;;;;10.98;8.07;;;;;;;8.04;95.97;97614.63;5114777;23;20590;-84
2022/11/20 00:22:08;;;;;;;11.98;8.48;;;;;;;8.01;96.37;97616.59;5114769;23;20270;-85
2022/11/20 00:24:11;;;;;;;11.50;8.05;;;;;;;8.00;97.38;97615.75;5089824;23;20628;-85
2022/11/20 00:26:15;;;;;;;15.95;9.50;;;;;;;8.00;96.59;97605.38;5114040;23;20181;-84
2022/11/20 00:28:20;;;;;;;11.88;8.75;;;;;;;7.99;96.20;97608.91;5089986;23;20298;-85
2022/11/20 00:30:23;;;;;;;10.52;7.40;;;;;;;7.97;96.11;97608.19;5114355;23;20508;-84
2022/11/20 00:32:26;;;;;;;12.07;8.52;;;;;;;7.99;97.83;97608.06;5089081;23;20179;-85
2022/11/20 00:34:29;;;;;;;11.90;8.05;;;;;;;8.00;97.32;97613.16;5113611;23;20178;-85
2022/11/20 00:36:34;;;;;;;11.57;8.45;;;;;;;8.00;96.87;97610.56;5089055;23;20182;-84
2022/11/20 00:38:37;;;;;;;10.25;7.90;;;;;;;7.99;97.46;97614.09;5089300;23;20186;-85
2022/11/20 00:40:40;;;;;;;13.35;8.70;;;;;;;7.99;97.34;97603.69;5113858;23;20175;-84
2022/11/20 00:42:43;;;;;;;13.93;9.10;;;;;;;8.00;97.30;97609.75;5113345;23;20642;-85
2022/11/20 00:44:47;;;;;;;11.23;8.90;;;;;;;7.98;96.55;97607.25;5089421;23;20194;-84
2022/11/20 00:46:50;;;;;;;12.93;9.45;;;;;;;8.00;96.70;97601.97;5138882;23;20174;-84
2022/11/20 00:48:54;;;;;;;13.05;8.18;;;;;;;7.99;96.45;97603.69;5113725;23;20266;-84
2022/11/20 00:50:57;;;;;;;12.93;8.93;;;;;;;7.97;97.57;97608.19;5088957;23;20221;-84
2022/11/20 00:53:00;;;;;;;11.82;8.15;;;;;;;7.99;97.92;97623.66;5089010;23;20183;-84
2022/11/20 00:55:04;;;;;;;16.45;9.20;;;;;;;7.96;96.31;97620.44;5113792;23;20208;-84
2022/11/20 00:57:07;;;;;;;16.85;10.60;;;;;;;7.95;98.04;97622.19;5090794;23;20214;-84
2022/11/20 00:59:10;;;;;;;14.77;9.55;;;;;;;7.96;98.20;97614.28;5140383;23;20177;-84
2022/11/20 01:01:16;;;;;;;13.90;9.48;;;;;;;7.97;97.72;97615.97;5090752;23;20183;-85
2022/11/20 01:03:19;;;;;;;13.75;9.57;;;;;;;7.98;97.81;97617.63;5090776;23;20207;-84
2022/11/20 01:05:28;;;;;;;14.93;9.35;;;;;;;8.01;96.93;97625.22;5117348;23;20167;-84
2022/11/20 01:07:33;;;;;;;13.00;8.98;;;;;;;8.02;97.89;97620.84;5115255;23;20285;-84
2022/11/20 01:09:36;;;;;;;14.52;9.55;;;;;;;8.01;97.60;97622.63;5091374;23;20175;-84
2022/11/20 01:11:40;;;;;;;15.30;9.63;;;;;;;7.99;98.01;97627.06;5091217;23;20200;-84
2022/11/20 01:13:45;;;;;;;14.20;8.93;;;;;;;8.01;97.68;97614.84;5117407;23;20631;-84
2022/11/20 01:15:48;;;;;;;12.95;8.77;;;;;;;8.00;97.73;97612.34;5116365;23;20175;-84
2022/11/20 01:17:52;;;;;;;15.13;10.02;;;;;;;8.01;97.03;97622.63;5116682;23;20182;-84
2022/11/20 01:19:55;;;;;;;17.80;11.13;;;;;;;8.01;98.20;97620.03;5091645;23;20659;-84
2022/11/20 01:21:58;;;;;;;16.98;11.05;;;;;;;8.00;97.81;97626.16;5091309;23;20206;-85
2022/11/20 01:24:02;;;;;;;16.23;10.60;;;;;;;8.00;98.29;97620.13;5091235;23;20179;-84
2022/11/20 01:26:07;;;;;;;18.30;10.68;;;;;;;8.02;98.49;97632.06;5115139;23;20209;-84
2022/11/20 01:28:10;;;;;;;15.70;11.07;;;;;;;8.02;98.73;97642.44;5091364;23;20199;-85
2022/11/20 01:30:13;;;;;;;15.95;10.82;;;;;;;8.03;98.07;97630.31;5090625;23;20265;-85
2022/11/20 01:32:17;;;;;;;16.50;11.02;;;;;;;8.03;97.60;97638.09;5116337;23;20179;-84
2022/11/20 01:34:23;;;;;;;18.27;12.05;;;;;;;8.02;97.06;97636.44;5090549;23;20283;-84
2022/11/20 01:36:28;;;;;;;14.82;10.18;;;;;;;8.04;97.43;97642.34;5090524;23;20179;-84
2022/11/20 01:38:31;;;;;;;17.23;10.65;;;;;;;8.02;98.50;97634.66;5116856;23;20241;-84
2022/11/20 01:40:34;;;;;;;18.90;11.73;;;;;;;8.00;98.04;97635.72;5090464;23;20261;-85
2022/11/20 01:44:59;;;;;;;15.80;10.77;;;;;;;8.00;98.13;97630.53;5090329;23;20183;-84
2022/11/20 01:47:03;;;;;;;17.30;11.10;;;;;;;8.00;97.89;97633.13;5115259;23;20178;-85
2022/11/20 01:49:12;;;;;;;17.80;11.40;;;;;;;8.00;98.03;97628.75;5090433;23;20219;-85
2022/11/20 01:51:22;;;;;;;16.70;11.57;;;;;;;8.02;97.88;97634.66;5114768;23;20222;-84
2022/11/20 01:53:29;;;;;;;17.05;11.18;;;;;;;8.01;97.83;97633.00;5114718;23;20194;-84
2022/11/20 01:55:33;;;;;;;15.77;11.25;;;;;;;8.01;97.72;97630.41;5090384;23;20183;-85
2022/11/20 01:57:37;;;;;;;18.48;12.23;;;;;;;8.03;97.87;97619.94;5114760;23;20200;-84
2022/11/20 01:59:43;;;;;;;15.98;11.00;;;;;;;8.03;97.57;97625.94;5090192;23;20179;-85
2022/11/20 02:01:46;;;;;;;17.80;11.65;;;;;;;8.06;97.99;97624.94;5115160;23;20189;-84
2022/11/20 02:03:50;;;;;;;20.33;11.48;;;;;;;8.07;97.73;97624.81;5114557;23;20246;-85
2022/11/20 02:05:57;;;;;;;22.98;11.00;;;;;;;8.08;98.02;97618.69;5090237;23;20258;-85
2022/11/20 02:08:03;;;;;;;15.60;10.93;;;;;;;8.09;98.55;97628.13;5114700;23;20288;-85
2022/11/20 02:10:08;;;;;;;17.95;11.00;;;;;;;8.08;98.05;97620.44;5090331;23;20168;-85
2022/11/20 02:13:42;;;;;;;16.45;10.57;;;;;;;8.09;98.66;97619.53;5090313;23;20267;-85
2022/11/20 02:14:34;;;;;;;17.75;12.18;;;;;;;8.07;97.78;97617.03;5090250;23;20176;-85
2022/11/20 02:16:39;;;;;;;15.57;11.18;;;;;;;8.10;97.28;97619.44;5115092;23;20503;-84
2022/11/20 02:18:42;;;;;;;16.50;12.10;;;;;;;8.10;97.79;97613.38;5114839;23;20174;-85
2022/11/20 02:20:48;;;;;;;17.40;11.13;;;;;;;8.12;98.76;97624.56;5090208;23;20240;-85
2022/11/20 02:22:55;;;;;;;15.65;11.07;;;;;;;8.13;98.18;97629.66;5090236;23;20196;-85
2022/11/20 02:25:02;;;;;;;17.73;11.35;;;;;;;8.14;98.36;97620.91;5090493;23;20169;-85
2022/11/20 02:27:07;;;;;;;16.48;10.63;;;;;;;8.15;98.11;97630.38;5090171;23;20183;-84
2022/11/20 02:29:11;;;;;;;16.05;10.63;;;;;;;8.14;97.37;97628.69;5090095;23;20655;-83
2022/11/20 02:31:14;;;;;;;16.08;11.30;;;;;;;8.14;97.45;97623.50;5114804;23;20175;-84
2022/11/20 02:33:18;;;;;;;15.65;10.43;;;;;;;8.15;97.26;97621.75;5089865;23;20183;-85
2022/11/20 02:35:42;;;;;;;16.90;11.30;;;;;;;8.17;98.91;97622.47;5115066;23;20178;-84
2022/11/20 02:37:47;;;;;;;17.95;11.90;;;;;;;8.18;98.51;97619.78;5090166;23;20168;-84
2022/11/20 02:39:52;;;;;;;16.02;10.77;;;;;;;8.20;97.55;97614.47;5114682;23;20179;-85
2022/11/20 02:41:57;;;;;;;18.50;11.48;;;;;;;8.21;98.34;97623.91;5089841;23;20176;-85
2022/11/20 02:44:01;;;;;;;16.48;10.82;;;;;;;8.21;97.52;97621.31;5114578;23;20166;-85
2022/11/20 02:46:24;;;;;;;16.00;10.52;;;;;;;8.22;96.98;97620.41;5114886;23;20170;-85
2022/11/20 02:48:27;;;;;;;16.13;11.55;;;;;;;8.21;96.86;97629.97;5114580;23;20190;-84
2022/11/20 02:50:38;;;;;;;15.77;10.82;;;;;;;8.18;97.02;97627.56;5090189;23;20521;-84
2022/11/20 02:52:41;;;;;;;17.23;11.35;;;;;;;8.18;97.21;97634.53;5115758;23;20179;-84
2022/11/20 02:54:45;;;;;;;16.42;11.52;;;;;;;8.19;97.44;97628.38;5114676;23;20189;-85
2022/11/20 02:56:48;;;;;;;17.67;11.65;;;;;;;8.18;97.10;97632.75;5114704;23;20934;-84
2022/11/20 02:58:53;;;;;;;17.45;12.07;;;;;;;8.17;97.92;97622.47;5090026;23;20176;-84
2022/11/20 03:00:57;;;;;;;19.88;12.10;;;;;;;8.19;97.64;97626.63;5090121;23;20222;-84
2022/11/20 03:03:00;;;;;;;16.52;11.82;;;;;;;8.20;97.77;97628.28;5114434;23;20212;-84
2022/11/20 03:05:04;;;;;;;18.75;11.65;;;;;;;8.19;97.42;97625.78;5089826;23;20179;-84
2022/11/20 03:07:09;;;;;;;18.23;12.25;;;;;;;8.18;97.75;97619.78;5114210;23;20174;-84
2022/11/20 03:09:13;;;;;;;17.25;11.25;;;;;;;8.18;97.68;97614.59;5115764;23;20199;-85
2022/11/20 03:11:17;;;;;;;18.20;11.82;;;;;;;8.18;97.67;97617.19;5114582;23;20174;-85
2022/11/20 03:13:21;;;;;;;19.70;11.30;;;;;;;8.19;97.85;97621.41;5090575;23;20659;-85
2022/11/20 03:15:25;;;;;;;16.73;12.27;;;;;;;8.20;97.43;97620.50;5090433;23;20175;-85
2022/11/20 03:17:29;;;;;;;19.45;11.00;;;;;;;8.22;97.12;97623.81;5116527;23;20174;-84
2022/11/20 03:19:32;;;;;;;17.45;11.45;;;;;;;8.20;97.31;97619.69;5115193;23;20635;-87
2022/11/20 03:21:36;;;;;;;15.93;10.77;;;;;;;8.21;96.98;97619.56;5115094;23;20197;-84
2022/11/20 03:23:41;;;;;;;17.85;11.88;;;;;;;8.21;98.20;97618.72;5115231;23;20206;-85
2022/11/20 03:25:44;;;;;;;15.40;10.90;;;;;;;8.21;97.35;97610.94;5090518;23;20218;-84
2022/11/20 03:27:47;;;;;;;19.02;11.57;;;;;;;8.20;97.14;97617.91;5090802;23;20233;-84
2022/11/20 03:29:51;;;;;;;16.10;11.05;;;;;;;8.21;98.22;97614.38;5090574;23;20223;-85
2022/11/20 03:31:55;;;;;;;17.23;11.02;;;;;;;8.22;98.11;97607.41;5090504;23;20179;-85
2022/11/20 03:34:00;;;;;;;15.90;11.50;;;;;;;8.22;98.77;97607.41;5116214;23;20551;-84
2022/11/20 03:36:04;;;;;;;16.58;11.43;;;;;;;8.21;97.34;97608.34;5090289;23;20226;-85
2022/11/20 03:38:07;;;;;;;17.95;11.10;;;;;;;8.22;97.67;97610.81;5089055;23;20677;-84
2022/11/20 03:40:11;;;;;;;16.73;10.80;;;;;;;8.22;97.75;97608.22;5090031;23;20808;-84
2022/11/20 03:44:32;;;;;;;22.02;11.20;;;;;;;8.19;97.30;97605.84;5113632;23;20206;-85
2022/11/20 03:46:35;;;;;;;15.55;10.40;;;;;;;8.17;97.42;97612.09;5090183;23;20523;-85
2022/11/20 03:48:40;;;;;;;14.40;10.55;;;;;;;8.18;96.94;97608.56;5114678;23;20186;-84
2022/11/20 03:50:43;;;;;;;16.17;11.02;;;;;;;8.17;97.79;97607.72;5114765;23;20206;-85
2022/11/20 03:52:48;;;;;;;18.25;11.95;;;;;;;8.15;97.64;97608.78;5116314;23;20182;-85
2022/11/20 03:54:52;;;;;;;16.73;10.90;;;;;;;8.11;97.75;97600.34;5114623;23;20225;-84
2022/11/20 03:56:56;;;;;;;19.58;11.90;;;;;;;8.09;98.19;97598.75;5090265;23;20207;-85
2022/11/20 03:58:59;;;;;;;18.05;12.00;;;;;;;8.10;98.63;97611.63;5114238;23;20531;-84
2022/11/20 04:01:07;;;;;;;16.90;11.23;;;;;;;8.13;98.92;97606.28;5114067;23;20646;-84
2022/11/20 04:03:11;;;;;;;16.77;11.18;;;;;;;8.16;98.11;97608.66;5114020;23;20170;-84
2022/11/20 04:05:16;;;;;;;16.20;10.88;;;;;;;8.19;99.22;97605.00;5089282;23;20202;-85
2022/11/20 04:07:19;;;;;;;15.68;10.90;;;;;;;8.18;99.68;97604.19;5089848;23;20222;-84
2022/11/20 04:09:23;;;;;;;15.40;10.27;;;;;;;8.22;99.42;97607.41;5115489;23;20209;-84
2022/11/20 04:11:27;;;;;;;14.32;10.30;;;;;;;8.22;98.60;97605.63;5089056;23;20182;-84
2022/11/20 04:13:30;;;;;;;14.98;9.00;;;;;;;8.24;98.01;97602.94;5113790;23;20700;-85
2022/11/20 04:15:33;;;;;;;12.38;9.25;;;;;;;8.24;99.52;97598.59;5089110;23;20533;-85
2022/11/20 04:17:40;;;;;;;9.88;6.90;;;;;;;8.24;98.11;97598.59;5114125;23;20265;-85
2022/11/20 04:19:43;;;;;;;6.55;5.20;;;;;;;8.24;96.89;97593.41;5113725;23;20174;-85
2022/11/20 04:21:47;;;;;;;6.85;6.15;;;;;;;8.24;97.55;97593.41;5115751;23;20270;-84
2022/11/20 04:23:51;;;;;;;6.30;4.75;;;;;;;8.18;96.76;97587.78;5089729;23;20210;-85
2022/11/20 04:25:54;;;;;;;6.55;4.65;;;;;;;8.14;96.46;97586.31;5089175;23;20175;-85
2022/11/20 04:27:57;;;;;;;6.60;5.13;;;;;;;8.13;95.67;97579.47;5089307;23;20237;-84
2022/11/20 04:30:00;;;;;;;6.55;4.53;;;;;;;8.09;96.81;97586.59;5089080;23;20227;-85
2022/11/20 04:32:03;;;;;;;7.72;4.07;;;;;;;8.07;96.07;97585.88;5115599;23;20661;-84
2022/11/20 04:34:07;;;;;;;4.53;4.13;;;;;;;7.99;95.51;97590.72;5115237;23;20209;-85
2022/11/20 04:36:13;;;;;;;4.18;3.78;;;;;;;8.00;96.29;97591.56;5089035;23;20199;-85
2022/11/20 04:38:17;;;;;;;4.70;4.13;;;;;;;8.03;96.87;97593.97;5089282;23;20189;-85
2022/11/20 04:40:20;;;;;;;5.15;4.63;;;;;;;8.06;97.40;97592.00;5113491;23;20174;-85
2022/11/20 04:42:29;;;;;;;7.82;4.95;;;;;;;8.08;97.12;97597.91;5114551;23;20263;-85
2022/11/20 04:44:32;;;;;;;6.22;4.80;;;;;;;8.09;96.31;97593.56;5114101;23;20588;-85
2022/11/20 04:46:37;;;;;;;5.13;4.47;;;;;;;8.05;96.89;97590.31;5114206;23;20171;-85
2022/11/20 04:48:40;;;;;;;7.95;4.78;;;;;;;8.05;96.84;97592.09;5113154;23;20209;-84
2022/11/20 04:50:42;;;;;;;5.70;4.25;;;;;;;8.05;96.65;97589.50;5115309;23;20198;-85
2022/11/20 04:52:45;;;;;;;6.40;5.05;;;;;;;8.07;96.71;97592.81;5115079;23;20205;-85
2022/11/20 04:54:52;;;;;;;6.55;4.25;;;;;;;8.04;97.32;97593.00;5114257;23;20196;-85
2022/11/20 04:56:55;;;;;;;7.05;4.80;;;;;;;7.98;97.21;97590.81;5113772;23;20231;-85
2022/11/20 04:59:01;;;;;;;5.00;4.10;;;;;;;7.97;97.42;97595.19;5089356;23;20229;-86
2022/11/20 05:01:05;;;;;;;8.13;4.28;;;;;;;8.02;97.36;97584.50;5113663;23;20240;-85
2022/11/20 05:03:08;;;;;;;5.07;4.25;;;;;;;8.00;96.68;97586.38;5113479;23;20183;-85
2022/11/20 05:05:11;;;;;;;6.05;4.20;;;;;;;7.98;95.84;97581.28;5089097;23;20231;-85
2022/11/20 05:07:14;;;;;;;5.07;4.05;;;;;;;7.86;95.47;97577.81;5113674;23;20187;-85
2022/11/20 05:09:18;;;;;;;6.47;4.15;;;;;;;7.77;97.13;97579.28;5113527;23;20182;-85
2022/11/20 05:11:22;;;;;;;6.93;4.55;;;;;;;7.71;96.83;97582.28;5088617;23;20200;-85
2022/11/20 05:13:25;;;;;;;6.00;4.00;;;;;;;7.72;97.00;97576.13;5089085;23;20186;-85
2022/11/20 05:15:29;;;;;;;5.88;4.30;;;;;;;7.72;96.59;97583.09;5088866;23;20302;-85
2022/11/20 05:17:32;;;;;;;5.60;4.75;;;;;;;7.75;96.95;97591.50;5089064;23;20178;-85
2022/11/20 05:19:35;;;;;;;4.97;4.38;;;;;;;7.82;97.29;97586.75;5088936;23;20176;-85
2022/11/20 05:21:38;;;;;;;5.45;4.35;;;;;;;7.89;97.47;97585.41;5113716;23;20178;-85
2022/11/20 05:23:41;;;;;;;5.38;4.40;;;;;;;7.92;97.58;97580.03;5113634;23;20182;-85
2022/11/20 05:25:44;;;;;;;6.55;4.70;;;;;;;7.92;97.63;97586.03;5113811;23;20643;-84
2022/11/20 05:27:49;;;;;;;4.65;3.90;;;;;;;7.92;97.64;97580.84;5113749;23;20203;-85
2022/11/20 05:29:52;;;;;;;4.40;3.80;;;;;;;7.95;96.74;97587.59;5113418;23;20186;-85
2022/11/20 05:31:55;;;;;;;4.78;4.38;;;;;;;7.96;96.00;97584.91;5089075;23;20174;-85
2022/11/20 05:33:58;;;;;;;5.78;3.92;;;;;;;7.96;96.12;97582.31;5113392;23;20185;-85
2022/11/20 05:36:01;;;;;;;4.68;3.85;;;;;;;7.93;96.67;97582.50;5089113;23;20198;-85
2022/11/20 05:38:04;;;;;;;4.53;3.60;;;;;;;7.94;96.67;97581.59;5088783;23;20636;-84
2022/11/20 05:40:09;;;;;;;5.10;4.13;;;;;;;7.88;94.77;97574.22;5089054;23;20175;-85
2022/11/20 05:44:33;;;;;;;4.45;3.95;;;;;;;7.84;95.32;97582.28;5090671;23;20178;-85
2022/11/20 05:46:36;;;;;;;4.70;4.03;;;;;;;7.76;95.21;97574.19;5115306;23;20174;-85
2022/11/20 05:48:41;;;;;;;6.60;4.30;;;;;;;7.70;95.81;97578.00;5088818;23;20201;-84
2022/11/20 05:50:43;;;;;;;4.75;3.80;;;;;;;7.67;95.54;97579.97;5090223;23;20226;-85
2022/11/20 05:52:46;;;;;;;8.10;4.05;;;;;;;7.65;96.50;97576.63;5114679;23;20185;-85
2022/11/20 05:54:49;;;;;;;4.97;3.65;;;;;;;7.56;95.39;97580.66;5114742;23;20872;-85
2022/11/20 05:56:52;;;;;;;5.43;3.72;;;;;;;7.54;96.21;97579.09;5116495;23;20521;-85
2022/11/20 05:58:55;;;;;;;4.57;3.55;;;;;;;7.50;95.68;97575.88;5090529;23;20618;-85
2022/11/20 06:01:06;;;;;;;5.22;3.90;;;;;;;7.50;97.29;97572.44;5090425;23;20213;-85
2022/11/20 06:03:09;;;;;;;4.30;3.35;;;;;;;7.53;97.14;97574.81;5116200;23;20180;-85
2022/11/20 06:05:12;;;;;;;4.15;3.75;;;;;;;7.55;96.09;97575.59;5090156;23;20180;-85
2022/11/20 06:07:15;;;;;;;3.75;3.42;;;;;;;7.54;96.48;97581.69;5115192;23;20213;-85
2022/11/20 06:09:18;;;;;;;4.93;3.40;;;;;;;7.58;96.42;97576.22;5114888;23;20570;-85
2022/11/20 06:11:22;;;;;;;4.22;3.83;;;;;;;7.63;97.00;97574.13;5089819;23;20188;-84
2022/11/20 06:13:25;;;;;;;3.90;3.50;;;;;;;7.65;96.09;97577.47;5114732;23;20237;-85
2022/11/20 06:15:29;;;;;;;4.53;3.97;;;;;;;7.67;96.15;97580.81;5090165;23;20178;-85
2022/11/20 06:17:33;;;;;;;5.35;4.07;;;;;;;7.68;96.37;97568.66;5114687;23;20175;-85
2022/11/20 06:19:36;;;;;;;5.72;3.72;;;;;;;7.74;96.19;97573.44;5114460;23;20500;-85
2022/11/20 06:21:39;;;;;;;4.25;3.70;;;;;;;7.76;96.85;97569.81;5115896;23;20179;-85
2022/11/20 06:23:43;;;;;;;5.30;3.65;;;;;;;7.73;95.87;97569.19;5114647;23;20182;-85
2022/11/20 06:25:48;;;;;;;5.90;4.05;;;;;;;7.71;95.06;97565.84;5090296;23;20168;-85
2022/11/20 06:27:51;;;;;;;5.25;3.80;;;;;;;7.69;95.23;97567.72;5090195;23;20540;-85
2022/11/20 06:29:54;;;;;;;4.88;3.53;;;;;;;7.65;93.77;97566.25;5114927;23;20201;-85
2022/11/20 06:31:57;;;;;;;4.95;3.90;;;;;;;7.64;94.93;97568.03;5114591;23;20221;-84
2022/11/20 06:34:01;;;;;;;4.88;3.95;;;;;;;7.59;94.96;97566.66;5090153;23;20183;-85
2022/11/20 06:36:05;;;;;;;4.63;3.45;;;;;;;7.60;95.29;97563.94;5090224;23;20182;-85
2022/11/20 06:38:12;;;;;;;4.25;3.40;;;;;;;7.65;94.51;97563.66;5089997;23;20179;-85
2022/11/20 06:40:16;;;;;;;5.40;4.18;;;;;;;7.70;96.05;97564.22;5114304;23;20182;-85
2022/11/20 06:42:19;;;;;;;5.75;4.20;;;;;;;7.75;95.45;97572.53;5115030;23;20185;-85
2022/11/20 06:44:22;;;;;;;4.93;4.00;;;;;;;7.79;95.26;97574.81;5116285;23;20181;-85
2022/11/20 06:46:25;;;;;;;4.85;3.55;;;;;;;7.79;94.35;97571.41;5114615;23;20183;-85
2022/11/20 06:48:28;;;;;;;7.82;3.75;;;;;;;7.73;93.48;97582.19;5089802;23;20178;-85
2022/11/20 06:50:33;;;;;;;4.28;3.30;;;;;;;7.69;94.98;97578.09;5114547;23;20193;-85
2022/11/20 06:52:36;;;;;;;4.18;3.30;;;;;;;7.69;94.20;97572.91;5089302;23;20219;-84
2022/11/20 06:54:45;;;;;;;4.93;3.55;;;;;;;7.73;94.71;97577.00;5089899;23;20220;-85
2022/11/20 06:56:48;;;;;;;5.18;3.60;;;;;;;7.74;94.35;97578.63;5114223;23;20282;-85
2022/11/20 06:58:51;;;;;;;4.82;3.60;;;;;;;7.78;94.82;97573.13;5090169;23;20695;-85
2022/11/20 07:00:54;;;;;;;4.57;3.13;;;;;;;7.79;94.88;97579.19;5114831;23;20242;-85
2022/11/20 07:02:58;;;;;;;3.70;3.30;;;;;;;7.81;94.67;97575.53;5090022;23;20245;-86
2022/11/20 07:05:01;;;;;;;6.72;3.30;;;;;;;7.88;95.66;97579.41;5115158;23;20183;-85
2022/11/20 07:07:06;;;;;;;4.80;3.28;;;;;;;7.90;94.94;97584.50;5114916;23;20205;-85
2022/11/20 07:09:09;;;;;;;5.63;3.78;;;;;;;7.94;94.69;97581.59;5116143;23;20175;-85
2022/11/20 07:11:14;;;;;;;6.00;3.70;;;;;;;7.98;95.48;97585.63;5116941;23;20919;-86
2022/11/20 07:13:18;;;;;;;3.75;3.25;;;;;;;8.01;94.90;97580.22;5092702;23;20184;-85
2022/11/20 07:15:22;;;;;;;5.65;3.20;;;;;;;8.00;94.45;97581.19;5114041;23;20490;-86
2022/11/20 07:17:26;;;;;;;4.82;3.05;;;;;;;8.04;94.18;97577.44;5115401;23;20258;-86
2022/11/20 07:19:30;;;;;;;3.85;3.42;;;;;;;8.07;94.35;97583.28;5090492;23;20175;-86
2022/11/20 07:21:33;;;;;;;5.65;4.00;;;;;;;8.08;93.73;97582.31;5114293;23;20605;-86
2022/11/20 07:23:37;;;;;;;3.30;3.00;;;;;;;8.10;95.00;97579.63;5089540;23;20210;-86
2022/11/20 07:25:40;;;;;;;4.07;3.35;;;;;;;8.09;93.25;97584.00;5114195;23;20646;-86
2022/11/20 07:27:43;;;;;;;3.83;3.42;;;;;;;8.11;94.35;97595.13;5114403;23;20181;-85
2022/11/20 07:29:47;;;;;;;4.97;3.35;;;;;;;8.14;93.12;97602.72;5114381;23;20185;-86
2022/11/20 07:31:50;;;;;;;4.10;3.53;;;;;;;8.16;93.67;97595.69;5114204;23;20672;-85
2022/11/20 07:33:53;;;;;;;4.55;3.65;;;;;;;8.19;93.85;97603.25;5089627;23;20560;-86
2022/11/20 07:35:56;;;;;;;4.53;3.85;;;;;;;8.23;93.92;97601.28;5113830;23;20626;-85
2022/11/20 07:37:59;;;;;;;3.40;3.10;;;;;;;8.11;93.78;97600.34;5114089;23;20175;-85
2022/11/20 07:40:04;;;;;;;4.13;3.60;;;;;;;8.08;93.35;97597.91;5114440;23;20177;-85
2022/11/20 07:42:07;;;;;;;7.90;3.63;;;;;;;8.10;95.18;97615.97;5114251;23;20173;-86
2022/11/20 07:44:13;;;;;;;3.22;2.90;;;;;;;8.16;94.91;97610.41;5115794;23;20182;-85
2022/11/20 07:46:16;;;;;;;5.13;3.70;;;;;;;8.21;94.95;97616.13;5114184;23;20217;-85
2022/11/20 07:48:19;;;;;;;4.60;3.50;;;;;;;8.23;94.12;97611.69;5114651;23;20175;-85
2022/11/20 07:50:22;;;;;;;4.70;3.38;;;;;;;8.23;95.04;97620.28;5088652;23;20219;-85
2022/11/20 07:52:25;;;;;;;5.43;3.80;;;;;;;8.27;95.60;97618.31;5089320;23;20230;-85
2022/11/20 07:54:28;;;;;;;3.75;3.28;;;;;;;8.28;96.13;97615.63;5088978;23;20620;-85
2022/11/20 07:56:33;;;;;;;4.25;3.65;;;;;;;8.29;96.77;97625.09;5114589;23;20212;-85
2022/11/20 07:58:36;;;;;;;5.07;4.25;;;;;;;8.33;96.18;97623.97;5114513;23;20201;-85
2022/11/20 08:00:39;;;;;;;5.82;4.55;;;;;;;8.32;96.05;97617.09;5114592;23;20704;-85
2022/11/20 08:02:43;;;;;;;7.75;5.75;;;;;;;8.37;96.27;97622.78;5089679;23;20262;-85
2022/11/20 08:04:46;;;;;;;5.95;5.00;;;;;;;8.38;95.70;97631.44;5113988;23;20195;-85
2022/11/20 08:06:49;;;;;;;7.22;5.13;;;;;;;8.33;96.05;97618.75;5114523;23;20175;-85
2022/11/20 08:08:52;;;;;;;7.18;5.55;;;;;;;8.36;97.42;97621.16;5114715;23;20170;-85
2022/11/20 08:14:11;;;;;;;6.70;5.18;;;;;;;8.36;96.49;97618.56;5113661;23;20171;-85
2022/11/20 08:15:48;;;;;;;5.63;4.35;;;;;;;8.39;97.59;97625.28;5090515;23;20207;-85
2022/11/20 08:17:51;;;;;;;5.05;4.60;;;;;;;8.39;96.38;97615.75;5114401;23;20173;-85
2022/11/20 08:20:15;;;;;;;6.63;5.03;;;;;;;8.41;97.36;97626.03;5089678;23;20501;-85
2022/11/20 08:22:18;;;;;;;4.68;3.30;;;;;;;8.33;96.64;97621.34;5089365;23;20218;-85
2022/11/20 08:24:21;;;;;;;4.28;3.70;;;;;;;8.24;96.67;97615.91;5089111;23;20172;-85
2022/11/20 08:26:24;;;;;;;4.35;3.88;;;;;;;8.23;96.50;97625.50;5089695;23;20654;-85
2022/11/20 08:28:29;;;;;;;5.38;4.53;;;;;;;8.28;97.65;97622.59;5089389;23;20203;-85
2022/11/20 08:30:32;;;;;;;4.30;3.90;;;;;;;8.30;98.08;97626.75;5114102;23;20897;-85
2022/11/20 08:32:37;;;;;;;5.60;3.60;;;;;;;8.33;97.59;97629.16;5114465;23;20198;-85
2022/11/20 08:34:40;;;;;;;5.13;4.13;;;;;;;8.37;97.28;97634.97;5114466;23;20548;-85
2022/11/20 08:36:43;;;;;;;6.30;3.83;;;;;;;8.40;97.62;97629.56;5089989;23;20213;-85
2022/11/20 08:38:48;;;;;;;5.40;3.90;;;;;;;8.44;97.80;97633.63;5115920;23;20203;-85
2022/11/20 08:43:08;;;;;;;6.88;4.00;;;;;;;8.52;97.54;97635.63;5112665;23;20171;-85
2022/11/20 08:45:12;;;;;;;5.85;3.80;;;;;;;8.53;96.58;97641.63;5089640;23;20205;-85
2022/11/20 08:47:15;;;;;;;4.30;3.90;;;;;;;8.55;96.69;97644.94;5114961;23;20195;-85
2022/11/20 08:49:18;;;;;;;6.38;4.45;;;;;;;8.57;96.72;97646.53;5089961;23;20699;-85
2022/11/20 08:51:22;;;;;;;5.05;4.13;;;;;;;8.58;97.13;97660.34;5114285;23;20179;-85
2022/11/20 08:53:26;;;;;;;4.28;3.70;;;;;;;8.60;97.39;97648.91;5113695;23;20201;-85
2022/11/20 08:55:29;;;;;;;5.22;4.18;;;;;;;8.56;96.84;97660.44;5114223;23;20170;-85
2022/11/20 08:57:33;;;;;;;4.35;3.95;;;;;;;8.52;97.01;97645.16;5089526;23;20179;-86
2022/11/20 08:59:36;;;;;;;5.75;4.40;;;;;;;8.52;97.59;97639.94;5114401;23;20175;-85
2022/11/20 09:02:01;;;;;;;5.03;4.07;;;;;;;8.52;96.36;97640.81;5089491;23;20554;-85
2022/11/20 09:04:05;;;;;;;8.57;6.85;;;;;;;8.50;97.64;97649.63;5113517;23;20675;-85
2022/11/20 09:06:08;;;;;;;8.90;4.22;;;;;;;8.53;97.21;97642.44;5089345;23;20651;-85
2022/11/20 09:08:11;;;;;;;5.03;4.50;;;;;;;8.55;96.82;97648.41;5114038;23;20208;-85
2022/11/20 09:10:15;;;;;;;4.32;3.92;;;;;;;8.56;98.17;97642.25;5114375;23;20178;-85
2022/11/20 09:12:26;;;;;;;6.18;4.65;;;;;;;8.58;97.56;97645.56;5114574;23;20198;-85
2022/11/20 09:14:29;;;;;;;5.65;3.83;;;;;;;8.61;98.64;97647.13;5114759;23;20237;-85
2022/11/20 09:16:32;;;;;;;4.95;4.15;;;;;;;8.57;97.82;97649.13;5090081;23;20643;-85
2022/11/20 09:18:37;;;;;;;5.28;4.20;;;;;;;8.56;97.52;97663.03;5091965;23;20553;-85
2022/11/20 09:20:40;;;;;;;5.00;4.20;;;;;;;8.57;97.31;97661.28;5091709;23;20232;-85
2022/11/20 09:22:43;;;;;;;6.45;4.88;;;;;;;8.63;98.47;97663.44;5090524;23;20734;-85
2022/11/20 09:24:46;;;;;;;6.00;4.63;;;;;;;8.70;98.97;97664.72;5116145;23;20189;-85
2022/11/20 09:26:50;;;;;;;5.57;4.55;;;;;;;8.74;98.48;97671.38;5117702;23;20286;-85
2022/11/20 09:28:53;;;;;;;5.65;4.65;;;;;;;8.76;99.09;97679.88;5116278;23;20215;-85
2022/11/20 09:31:00;;;;;;;8.13;6.60;;;;;;;8.78;98.76;97675.41;5091708;23;20251;-85
2022/11/20 09:33:05;;;;;;;7.18;6.47;;;;;;;8.78;99.08;97675.41;5090902;23;20202;-85
2022/11/20 09:35:10;;;;;;;8.95;8.05;;;;;;;8.76;98.71;97659.09;5091258;23;20523;-85
2022/11/20 09:37:14;;;;;;;9.10;6.78;;;;;;;8.75;98.55;97668.66;5091496;23;20199;-85
2022/11/20 09:39:17;;;;;;;8.10;6.68;;;;;;;8.77;99.53;97660.78;5116040;23;20194;-85
2022/11/20 09:41:40;;;;;;;7.65;6.68;;;;;;;8.79;99.27;97661.47;5091608;23;20186;-85
2022/11/20 09:43:51;;;;;;;8.52;5.88;;;;;;;8.79;98.77;97669.28;5091051;23;20191;-85
2022/11/20 09:46:06;;;;;;;5.78;5.13;;;;;;;8.76;99.16;97670.31;5115811;23;20175;-85
2022/11/20 09:48:48;;;;;;;6.88;6.15;;;;;;;8.70;99.69;97686.31;5090537;23;20183;-85
2022/11/20 09:50:58;;;;;;;11.40;5.82;;;;;;;8.67;99.00;97688.31;5017156;23;20270;-85
2022/11/20 09:53:12;;;;;;;5.95;5.28;;;;;;;8.70;99.09;97685.50;4992820;23;20201;-85
2022/11/20 09:55:16;;;;;;;5.95;5.28;;;;;;;8.74;100.00;97681.78;5029153;23;20192;-85
2022/11/20 09:57:21;;;;;;;8.15;6.20;;;;;;;8.77;100.00;97682.38;5090728;23;20188;-85
2022/11/20 09:59:35;;;;;;;7.60;5.95;;;;;;;8.79;100.00;97680.50;5115412;23;20263;-85
2022/11/20 10:01:40;;;;;;;6.28;5.40;;;;;;;8.82;100.00;97680.28;5116667;23;20268;-85